Time;durP1;ratioP1;P1;durP2;ratioP2;P2;SDS_P1;SDS_P2;PMS_P1;PMS_P2;Temp;Humidity;BMP_temperature;BMP_pressure;BME280_temperature;BME280_humidity;BME280_pressure;Samples;Min_cycle;Max_cycle;Signal;HPM_P1;HPM_P2
2021/12/04 01:44:33;;;;;;;52.63;33.80;;;4.30;98.30;;;;;;4053324;29;20891;-82
2021/12/04 01:46:38;;;;;;;50.23;31.20;;;4.30;98.30;;;;;;4082460;28;20470;-83
2021/12/04 01:48:48;;;;;;;49.70;31.00;;;4.30;98.30;;;;;;4148271;28;20540;-83
2021/12/04 01:50:55;;;;;;;51.87;31.93;;;4.30;98.30;;;;;;4147614;28;20465;-83
2021/12/04 01:53:00;;;;;;;48.77;31.07;;;4.30;98.30;;;;;;4147822;28;20963;-82
2021/12/04 01:55:09;;;;;;;50.43;31.87;;;4.40;98.30;;;;;;4147800;28;20488;-83
2021/12/04 01:57:15;;;;;;;55.80;32.40;;;4.30;98.30;;;;;;4148289;28;20503;-83
2021/12/04 01:59:21;;;;;;;47.00;29.80;;;4.40;98.30;;;;;;4148177;28;20497;-83
2021/12/04 02:04:13;;;;;;;45.00;28.83;;;4.30;98.30;;;;;;4147095;28;20491;-82
2021/12/04 02:06:17;;;;;;;45.53;29.60;;;4.30;98.30;;;;;;4148496;28;20557;-83
2021/12/04 02:21:57;;;;;;;45.30;29.50;;;4.30;98.30;;;;;;4544595;23;20484;-78
2021/12/04 02:24:00;;;;;;;47.20;29.33;;;4.30;98.30;;;;;;4147954;28;20528;-78
2021/12/04 02:26:03;;;;;;;50.80;29.63;;;4.30;98.30;;;;;;4147789;28;20473;-78
2021/12/04 02:28:07;;;;;;;51.10;29.50;;;4.30;98.30;;;;;;4135263;28;20489;-78
2021/12/04 02:30:14;;;;;;;48.23;29.40;;;4.30;98.30;;;;;;4131119;28;20926;-78
2021/12/04 02:32:21;;;;;;;44.50;27.80;;;4.30;98.30;;;;;;4131120;28;20452;-79
2021/12/04 02:34:25;;;;;;;48.22;28.35;;;4.30;98.30;;;;;;4130604;28;20446;-78
2021/12/04 02:36:28;;;;;;;46.83;28.17;;;4.30;98.30;;;;;;4131022;28;20212;-78
2021/12/04 02:38:32;;;;;;;46.63;26.90;;;4.30;98.30;;;;;;4130762;28;21025;-77
2021/12/04 02:40:35;;;;;;;46.40;27.83;;;4.30;98.30;;;;;;4130623;28;20220;-78
2021/12/04 02:42:38;;;;;;;48.20;28.30;;;4.30;98.30;;;;;;4131000;28;20497;-78
2021/12/04 02:44:42;;;;;;;41.47;24.67;;;4.30;98.30;;;;;;4131599;28;20534;-77
2021/12/04 02:46:45;;;;;;;45.73;27.00;;;4.30;98.30;;;;;;4129744;28;20522;-78
2021/12/04 02:48:48;;;;;;;52.03;29.53;;;4.30;98.30;;;;;;4125459;28;20478;-78
2021/12/04 02:50:51;;;;;;;45.13;26.90;;;4.30;98.30;;;;;;4131982;28;20467;-78
2021/12/04 02:52:54;;;;;;;47.27;27.20;;;4.30;98.30;;;;;;4131642;28;20463;-78
2021/12/04 02:54:58;;;;;;;45.27;27.70;;;4.30;98.30;;;;;;4131642;28;20538;-78
2021/12/04 02:57:02;;;;;;;44.00;28.43;;;4.30;98.30;;;;;;4131544;28;20598;-78
2021/12/04 02:59:05;;;;;;;52.97;28.60;;;4.30;98.30;;;;;;4123234;28;20471;-77
2021/12/04 03:01:08;;;;;;;47.07;28.60;;;4.30;98.30;;;;;;4130320;28;20496;-78
2021/12/04 03:03:11;;;;;;;45.23;28.70;;;4.30;98.30;;;;;;4130048;28;20825;-78
2021/12/04 03:05:14;;;;;;;42.30;24.77;;;4.30;98.30;;;;;;4130572;28;20882;-78
2021/12/04 03:07:18;;;;;;;44.53;28.67;;;4.40;98.30;;;;;;4130464;28;20507;-78
2021/12/04 03:09:26;;;;;;;48.80;27.20;;;4.30;98.30;;;;;;4123108;28;20490;-77
2021/12/04 03:11:31;;;;;;;50.03;28.10;;;4.30;98.30;;;;;;4130166;28;20470;-78
2021/12/04 03:13:34;;;;;;;46.73;27.57;;;4.30;98.30;;;;;;4129478;28;20471;-78
2021/12/04 03:15:41;;;;;;;43.27;26.73;;;4.30;98.30;;;;;;4130437;28;20483;-78
2021/12/04 03:17:44;;;;;;;47.63;27.83;;;4.40;98.30;;;;;;4130777;28;20491;-78
2021/12/04 03:19:49;;;;;;;51.17;27.23;;;4.30;98.30;;;;;;4130581;28;20479;-78
2021/12/04 03:21:52;;;;;;;42.20;27.20;;;4.30;98.30;;;;;;4139354;28;20490;-79
2021/12/04 03:23:58;;;;;;;46.87;27.10;;;4.30;98.30;;;;;;4146357;28;20449;-78
2021/12/04 03:26:04;;;;;;;47.37;29.30;;;4.30;98.30;;;;;;4146845;28;20458;-78
2021/12/04 03:28:08;;;;;;;50.73;28.73;;;4.30;98.30;;;;;;4143477;28;20497;-78
2021/12/04 03:30:20;;;;;;;51.77;31.23;;;4.30;98.30;;;;;;4146809;28;20479;-78
2021/12/04 03:41:59;;;;;;;53.53;33.07;;;4.30;98.30;;;;;;4129524;28;20486;-78
2021/12/04 03:44:03;;;;;;;48.27;30.03;;;4.30;98.30;;;;;;4146167;28;20478;-78
2021/12/04 03:46:09;;;;;;;53.27;32.40;;;4.30;98.30;;;;;;4146401;28;20482;-78
2021/12/04 03:48:18;;;;;;;58.80;31.60;;;4.30;98.30;;;;;;4147001;28;20494;-78
2021/12/04 03:50:20;;;;;;;56.17;29.17;;;4.30;98.30;;;;;;4146470;28;20478;-78
2021/12/04 03:52:23;;;;;;;56.17;32.80;;;4.30;98.30;;;;;;4146459;28;20445;-78
2021/12/04 03:54:26;;;;;;;49.27;31.00;;;4.30;98.30;;;;;;4146187;28;20540;-78
2021/12/04 03:56:31;;;;;;;60.97;34.27;;;4.30;98.30;;;;;;4146509;28;20958;-78
2021/12/04 03:58:34;;;;;;;54.07;32.67;;;4.30;98.30;;;;;;4146356;28;20486;-78
2021/12/04 04:00:38;;;;;;;57.60;31.93;;;4.30;98.30;;;;;;4147081;28;20471;-78
2021/12/04 04:02:41;;;;;;;60.37;33.27;;;4.30;98.30;;;;;;4149502;28;20906;-79
2021/12/04 04:04:45;;;;;;;61.20;33.73;;;4.30;98.30;;;;;;4148847;28;20456;-78
2021/12/04 04:06:48;;;;;;;65.23;34.30;;;4.30;98.30;;;;;;4149384;28;20470;-78
2021/12/04 04:08:51;;;;;;;57.77;32.20;;;4.30;98.30;;;;;;4149694;28;20481;-78
2021/12/04 04:10:54;;;;;;;57.73;31.83;;;4.40;98.30;;;;;;4148118;28;20541;-78
2021/12/04 04:12:57;;;;;;;55.30;33.07;;;4.30;98.30;;;;;;4149340;28;20477;-78
2021/12/04 04:15:00;;;;;;;56.53;34.10;;;4.30;98.30;;;;;;4149268;28;20474;-78
2021/12/04 04:17:05;;;;;;;59.30;35.23;;;4.30;98.30;;;;;;4149235;28;20490;-78
2021/12/04 04:19:09;;;;;;;58.40;34.60;;;4.30;98.30;;;;;;4149480;28;20806;-78
2021/12/04 04:21:12;;;;;;;62.60;34.77;;;4.30;98.30;;;;;;4149147;28;20520;-78
2021/12/04 04:23:15;;;;;;;63.73;34.00;;;4.30;98.30;;;;;;4148338;28;20482;-79
2021/12/04 04:25:18;;;;;;;74.07;36.17;;;4.30;98.30;;;;;;4149256;28;20455;-78
2021/12/04 04:27:21;;;;;;;65.83;37.60;;;4.30;98.30;;;;;;4149109;28;20893;-78
2021/12/04 04:29:25;;;;;;;61.60;35.20;;;4.30;98.30;;;;;;4148881;28;20478;-78
2021/12/04 04:31:28;;;;;;;68.57;37.00;;;4.30;98.30;;;;;;4149163;28;20976;-78
2021/12/04 04:33:37;;;;;;;67.03;37.27;;;4.30;98.30;;;;;;4148836;28;20493;-78
2021/12/04 04:35:40;;;;;;;73.37;40.57;;;4.30;98.30;;;;;;4148918;28;20470;-78
2021/12/04 04:37:50;;;;;;;72.60;38.17;;;4.30;98.30;;;;;;4148978;28;20933;-78
2021/12/04 04:58:52;;;;;;;83.90;40.33;;;4.30;98.30;;;;;;4141979;28;20529;-78
2021/12/04 05:10:39;;;;;;;90.70;41.37;;;4.20;98.30;;;;;;4146807;28;20477;-78
2021/12/04 05:12:49;;;;;;;80.50;43.83;;;4.20;98.30;;;;;;4147992;28;20462;-78
2021/12/04 05:14:56;;;;;;;89.13;43.60;;;4.20;98.30;;;;;;4148238;28;20444;-78
2021/12/04 05:17:04;;;;;;;103.20;47.07;;;4.20;98.30;;;;;;4148373;28;20479;-78
2021/12/04 05:19:13;;;;;;;87.73;42.97;;;4.30;98.30;;;;;;4148363;28;20456;-78
2021/12/04 05:21:17;;;;;;;83.77;41.73;;;4.30;98.30;;;;;;4147978;28;20510;-78
2021/12/04 05:23:21;;;;;;;94.23;43.57;;;4.20;98.30;;;;;;4147909;28;20449;-78
2021/12/04 05:25:23;;;;;;;77.67;41.70;;;4.20;98.30;;;;;;4140002;28;20453;-78
2021/12/04 05:27:26;;;;;;;76.40;41.30;;;4.20;98.30;;;;;;4148148;28;20996;-78
2021/12/04 05:29:29;;;;;;;78.30;38.07;;;4.20;98.30;;;;;;4148255;28;20520;-78
2021/12/04 05:31:32;;;;;;;85.83;41.30;;;4.20;98.30;;;;;;4148312;28;20938;-78
2021/12/04 05:33:35;;;;;;;78.10;42.87;;;4.20;98.30;;;;;;4147878;28;20463;-78
2021/12/04 05:35:38;;;;;;;77.60;42.60;;;4.20;98.30;;;;;;4147636;28;20467;-78
2021/12/04 05:37:43;;;;;;;89.03;44.00;;;4.20;98.30;;;;;;4147921;28;20461;-78
2021/12/04 05:39:45;;;;;;;91.43;43.70;;;4.20;98.30;;;;;;4148255;28;20475;-78
2021/12/04 05:41:48;;;;;;;88.47;43.50;;;4.20;98.30;;;;;;4147681;28;20503;-78
2021/12/04 05:43:51;;;;;;;86.83;43.03;;;4.20;98.30;;;;;;4144725;28;20462;-78
2021/12/04 05:46:00;;;;;;;84.93;43.00;;;4.20;98.30;;;;;;4139491;28;21021;-78
2021/12/04 05:48:07;;;;;;;83.03;41.20;;;4.30;98.30;;;;;;4144035;28;20917;-78
2021/12/04 05:50:25;;;;;;;85.70;41.00;;;4.20;98.30;;;;;;4145744;28;20466;-78
2021/12/04 05:52:39;;;;;;;88.37;42.00;;;4.20;98.30;;;;;;4148244;28;20532;-78
2021/12/04 05:55:07;;;;;;;85.10;41.90;;;4.20;98.30;;;;;;4147366;28;20949;-78
2021/12/04 05:57:12;;;;;;;84.23;42.87;;;4.20;98.30;;;;;;4147454;28;20588;-78
2021/12/04 05:59:14;;;;;;;72.97;36.33;;;4.20;98.30;;;;;;4147757;28;20479;-78
2021/12/04 06:01:20;;;;;;;76.33;39.77;;;4.20;98.30;;;;;;4149521;28;20837;-79
2021/12/04 06:03:23;;;;;;;74.73;39.93;;;4.20;98.30;;;;;;4140451;28;20483;-78
2021/12/04 06:05:26;;;;;;;84.37;40.17;;;4.20;98.30;;;;;;4147762;28;20562;-79
2021/12/04 06:07:29;;;;;;;76.23;38.83;;;4.20;98.30;;;;;;4147417;28;20469;-78
2021/12/04 06:09:31;;;;;;;78.60;40.97;;;4.20;98.30;;;;;;4147333;28;20507;-77
2021/12/04 06:11:36;;;;;;;71.13;38.10;;;4.20;98.30;;;;;;4147287;28;20485;-78
2021/12/04 06:13:39;;;;;;;66.27;37.80;;;4.20;98.30;;;;;;4147047;28;20933;-77
2021/12/04 06:15:42;;;;;;;81.77;40.57;;;4.20;98.30;;;;;;4147467;28;20478;-77
2021/12/04 06:17:45;;;;;;;83.70;41.30;;;4.20;98.30;;;;;;4147372;28;20472;-77
2021/12/04 06:24:29;;;;;;;74.03;40.00;;;4.20;98.30;;;;;;4146140;28;20491;-77
2021/12/04 06:26:33;;;;;;;68.20;36.73;;;4.20;98.30;;;;;;4139244;28;20449;-77
2021/12/04 06:28:37;;;;;;;71.23;40.67;;;4.20;98.30;;;;;;4147364;28;21192;-77
2021/12/04 06:30:41;;;;;;;74.17;36.83;;;4.20;98.30;;;;;;4147402;28;20509;-80
2021/12/04 06:32:47;;;;;;;71.43;39.00;;;4.20;98.30;;;;;;4147814;28;20569;-77
2021/12/04 06:34:52;;;;;;;71.23;37.83;;;4.10;98.30;;;;;;4147153;28;20994;-77
2021/12/04 06:36:54;;;;;;;81.83;37.03;;;4.10;98.30;;;;;;4139029;28;20486;-79
2021/12/04 06:38:57;;;;;;;75.73;40.47;;;4.20;98.30;;;;;;4146855;28;20478;-77
2021/12/04 06:41:00;;;;;;;81.10;41.70;;;4.10;98.30;;;;;;4147180;28;20456;-78
2021/12/04 06:43:04;;;;;;;71.97;37.60;;;4.20;98.30;;;;;;4146564;28;20920;-77
2021/12/04 06:45:10;;;;;;;75.10;40.63;;;4.10;98.30;;;;;;4146960;28;20449;-78
2021/12/04 06:47:13;;;;;;;73.80;37.90;;;4.20;98.30;;;;;;4146740;28;20498;-78
2021/12/04 06:49:19;;;;;;;76.87;40.47;;;4.20;98.30;;;;;;4146682;28;20495;-78
2021/12/04 06:51:25;;;;;;;70.20;38.07;;;4.10;98.30;;;;;;4147137;28;20950;-78
2021/12/04 06:53:32;;;;;;;65.03;36.17;;;4.20;98.30;;;;;;4145919;28;20551;-79
2021/12/04 06:55:39;;;;;;;69.43;38.53;;;4.20;98.30;;;;;;4139162;28;20471;-78
2021/12/04 06:57:43;;;;;;;77.17;39.70;;;4.10;98.30;;;;;;4146868;28;20998;-78
2021/12/04 06:59:48;;;;;;;72.83;39.23;;;4.10;98.30;;;;;;4146777;28;20506;-78
2021/12/04 07:01:52;;;;;;;67.50;37.77;;;4.10;98.30;;;;;;4146693;28;20479;-78
2021/12/04 07:03:58;;;;;;;71.70;38.40;;;4.10;98.30;;;;;;4146428;28;20505;-77
2021/12/04 07:06:01;;;;;;;66.03;35.83;;;4.10;98.30;;;;;;4147082;28;20815;-77
2021/12/04 07:08:05;;;;;;;67.20;37.00;;;4.10;98.30;;;;;;4147361;28;20861;-77
2021/12/04 07:10:09;;;;;;;67.07;36.53;;;4.10;98.30;;;;;;4147554;28;20572;-77
2021/12/04 07:12:12;;;;;;;59.90;34.93;;;4.10;98.30;;;;;;4147357;28;20838;-77
2021/12/04 07:14:15;;;;;;;68.70;41.33;;;4.10;98.30;;;;;;4146355;28;20470;-78
2021/12/04 07:16:19;;;;;;;73.73;36.20;;;4.10;98.30;;;;;;4146736;28;20905;-79
2021/12/04 07:18:23;;;;;;;61.73;36.33;;;4.20;98.30;;;;;;4146506;28;20486;-79
2021/12/04 07:20:27;;;;;;;63.83;35.70;;;4.20;98.30;;;;;;4146611;28;20832;-79
2021/12/04 07:22:30;;;;;;;56.80;31.93;;;4.20;98.30;;;;;;4145989;28;20480;-78
2021/12/04 07:24:33;;;;;;;64.33;35.77;;;4.10;98.30;;;;;;4146880;28;20494;-79
2021/12/04 07:26:36;;;;;;;54.20;32.77;;;4.10;98.30;;;;;;4146544;28;20503;-79
2021/12/04 07:28:39;;;;;;;60.17;33.50;;;4.10;98.30;;;;;;4146525;28;20493;-78
2021/12/04 07:30:42;;;;;;;55.73;33.40;;;4.20;98.30;;;;;;4146369;28;20473;-78
2021/12/04 07:32:45;;;;;;;60.40;35.57;;;4.20;98.30;;;;;;4146487;28;20808;-78
2021/12/04 07:34:49;;;;;;;52.63;32.10;;;4.20;98.30;;;;;;4147076;28;20470;-79
2021/12/04 07:36:52;;;;;;;51.50;32.77;;;4.20;98.30;;;;;;4149855;28;20977;-78
2021/12/04 07:38:55;;;;;;;50.70;32.80;;;4.20;98.30;;;;;;4149797;28;20470;-78
2021/12/04 07:40:59;;;;;;;57.40;33.23;;;4.20;98.30;;;;;;4149774;28;20478;-78
2021/12/04 07:43:02;;;;;;;52.30;31.27;;;4.20;98.30;;;;;;4149038;28;20456;-78
2021/12/04 07:45:08;;;;;;;52.80;31.53;;;4.20;98.30;;;;;;4149509;28;20460;-78
2021/12/04 07:47:11;;;;;;;51.07;31.80;;;4.30;98.30;;;;;;4149768;28;20501;-78
2021/12/04 07:49:14;;;;;;;49.37;30.30;;;4.20;98.30;;;;;;4150044;28;20471;-78
2021/12/04 07:51:18;;;;;;;47.87;29.57;;;4.30;98.30;;;;;;4149634;28;20584;-78
2021/12/04 07:53:21;;;;;;;48.50;29.40;;;4.20;98.30;;;;;;4149338;28;20476;-78
2021/12/04 07:55:24;;;;;;;44.27;27.70;;;4.30;98.30;;;;;;4148918;28;20496;-78
2021/12/04 07:57:27;;;;;;;46.10;27.30;;;4.30;98.30;;;;;;4149136;28;20597;-78
2021/12/04 07:59:30;;;;;;;45.50;28.63;;;4.20;98.30;;;;;;4149141;28;20544;-78
2021/12/04 08:01:33;;;;;;;37.90;27.60;;;4.30;98.30;;;;;;4149075;28;20869;-78
2021/12/04 08:03:36;;;;;;;44.73;28.10;;;4.30;98.30;;;;;;4149459;28;20509;-78
2021/12/04 08:05:39;;;;;;;39.23;27.10;;;4.30;98.30;;;;;;4149109;28;20545;-78
2021/12/04 08:07:44;;;;;;;46.20;27.40;;;4.30;98.30;;;;;;4148654;28;20465;-79
2021/12/04 08:09:47;;;;;;;39.10;27.00;;;4.30;98.30;;;;;;4146550;28;20471;-79
2021/12/04 08:11:50;;;;;;;38.23;26.53;;;4.30;98.30;;;;;;4151511;28;20480;-78
2021/12/04 08:13:54;;;;;;;40.83;27.23;;;4.30;98.30;;;;;;4149233;28;20474;-78
2021/12/04 08:15:57;;;;;;;39.13;25.90;;;4.30;98.30;;;;;;4149285;28;20814;-78
2021/12/04 08:18:00;;;;;;;38.10;27.37;;;4.30;98.30;;;;;;4151172;28;20493;-78
2021/12/04 08:20:05;;;;;;;41.87;26.40;;;4.30;98.30;;;;;;4148325;28;20930;-78
2021/12/04 08:22:08;;;;;;;39.80;27.40;;;4.40;98.30;;;;;;4149983;28;20505;-78
2021/12/04 08:24:12;;;;;;;38.30;26.97;;;4.40;98.30;;;;;;4152647;28;20474;-78
2021/12/04 08:26:16;;;;;;;36.67;26.40;;;4.40;98.30;;;;;;4152608;28;21135;-78
2021/12/04 08:28:19;;;;;;;34.83;24.50;;;4.40;98.30;;;;;;4152627;28;20465;-78
2021/12/04 08:30:23;;;;;;;35.40;25.23;;;4.40;98.30;;;;;;4152327;28;20501;-78
2021/12/04 08:32:26;;;;;;;34.27;24.80;;;4.40;98.30;;;;;;4145406;28;20517;-78
2021/12/04 08:34:29;;;;;;;35.90;24.50;;;4.40;98.30;;;;;;4151747;28;20467;-78
2021/12/04 08:36:33;;;;;;;33.90;23.10;;;4.40;98.30;;;;;;4145313;28;20470;-78
2021/12/04 08:38:37;;;;;;;34.20;23.10;;;4.40;98.30;;;;;;4154445;28;20498;-77
2021/12/04 08:40:42;;;;;;;36.30;25.30;;;4.40;98.30;;;;;;4150171;28;20500;-78
2021/12/04 08:42:47;;;;;;;35.20;23.30;;;4.40;98.30;;;;;;4158318;28;20445;-78
2021/12/04 08:44:50;;;;;;;34.10;22.37;;;4.40;98.30;;;;;;4157696;28;20461;-77
2021/12/04 08:46:53;;;;;;;37.23;23.93;;;4.40;98.30;;;;;;4152688;28;20853;-77
2021/12/04 08:48:56;;;;;;;36.90;26.03;;;4.40;98.30;;;;;;4148038;28;20453;-78
2021/12/04 08:51:00;;;;;;;33.87;22.97;;;4.40;98.30;;;;;;4151620;28;20449;-78
2021/12/04 08:53:04;;;;;;;32.03;21.77;;;4.40;98.30;;;;;;4152196;28;20974;-77
2021/12/04 08:55:09;;;;;;;30.63;22.10;;;4.30;98.30;;;;;;4151908;28;20470;-78
2021/12/04 08:57:13;;;;;;;30.37;20.83;;;4.40;98.30;;;;;;4152850;28;20513;-78
2021/12/04 08:59:16;;;;;;;30.10;21.70;;;4.50;98.30;;;;;;4154235;28;20471;-78
2021/12/04 09:01:24;;;;;;;32.70;23.53;;;4.40;98.30;;;;;;4156516;28;20845;-78
2021/12/04 09:03:30;;;;;;;32.30;21.50;;;4.50;98.30;;;;;;4155654;28;20497;-77
2021/12/04 09:05:35;;;;;;;29.70;22.63;;;4.50;98.30;;;;;;4142823;28;20488;-77
2021/12/04 09:07:38;;;;;;;30.97;20.77;;;4.50;98.30;;;;;;4143150;28;20557;-77
2021/12/04 09:09:41;;;;;;;31.97;22.93;;;4.50;98.30;;;;;;4146563;28;20449;-77
2021/12/04 09:12:00;;;;;;;29.70;20.27;;;4.40;98.30;;;;;;4148503;28;20502;-77
2021/12/04 09:14:06;;;;;;;31.00;21.30;;;4.40;98.30;;;;;;4141935;28;20688;-77
2021/12/04 09:16:10;;;;;;;29.67;20.70;;;4.40;98.30;;;;;;4140474;28;20463;-77
2021/12/04 09:18:13;;;;;;;27.70;19.83;;;4.40;98.30;;;;;;4148977;28;20513;-77
2021/12/04 09:20:17;;;;;;;30.10;21.97;;;4.40;98.30;;;;;;4140989;28;20470;-77
2021/12/04 09:22:27;;;;;;;34.37;23.17;;;4.40;98.30;;;;;;4145073;28;20476;-77
2021/12/04 09:24:40;;;;;;;30.33;21.90;;;4.40;98.30;;;;;;4143809;28;20493;-77
2021/12/04 09:26:53;;;;;;;34.53;23.10;;;4.40;98.30;;;;;;4134766;28;20947;-77
2021/12/04 09:29:04;;;;;;;35.90;25.53;;;4.50;98.30;;;;;;4143965;28;20485;-77
2021/12/04 09:31:43;;;;;;;34.40;25.03;;;4.50;98.30;;;;;;4149369;28;20479;-78
2021/12/04 10:00:03;;;;;;;29.17;21.70;;;4.70;98.30;;;;;;4141968;28;20445;-77
2021/12/04 10:02:11;;;;;;;30.77;22.67;;;4.80;98.30;;;;;;4149241;28;20999;-78
2021/12/04 10:14:15;;;;;;;29.37;22.10;;;4.70;98.30;;;;;;4134613;28;20478;-77
2021/12/04 10:23:40;;;;;;;37.37;25.00;;;4.60;98.30;;;;;;4148887;28;20467;-77
2021/12/04 10:33:11;;;;;;;36.13;26.03;;;4.70;98.30;;;;;;4137156;28;20953;-78
2021/12/04 10:35:17;;;;;;;39.60;25.83;;;4.70;98.30;;;;;;4149018;28;20456;-78
2021/12/04 10:37:25;;;;;;;34.67;26.53;;;4.70;98.30;;;;;;4149375;28;20465;-78
2021/12/04 10:39:27;;;;;;;40.57;27.70;;;4.70;98.30;;;;;;4141374;28;20485;-77
2021/12/04 10:41:33;;;;;;;31.43;23.10;;;4.70;98.30;;;;;;4141349;28;20470;-77
2021/12/04 10:43:36;;;;;;;35.60;23.77;;;4.70;98.30;;;;;;4148755;28;20442;-77
2021/12/04 10:45:41;;;;;;;34.17;23.43;;;4.70;98.30;;;;;;4147893;28;20469;-78
2021/12/04 10:47:52;;;;;;;36.10;25.10;;;4.70;98.30;;;;;;4143010;28;20570;-78
2021/12/04 10:50:10;;;;;;;36.00;25.70;;;4.60;98.30;;;;;;4140835;28;20470;-78
2021/12/04 10:52:29;;;;;;;33.30;22.53;;;4.60;98.30;;;;;;4146765;28;20480;-78
2021/12/04 10:54:39;;;;;;;33.67;23.87;;;4.60;98.30;;;;;;4140450;28;20503;-78
2021/12/04 10:57:00;;;;;;;37.03;26.67;;;4.60;98.30;;;;;;4148232;28;20449;-78
2021/12/04 11:01:45;;;;;;;34.07;24.43;;;4.60;98.30;;;;;;4148684;28;20474;-78
2021/12/04 11:03:54;;;;;;;32.33;23.90;;;4.60;98.30;;;;;;4147506;28;20449;-77
2021/12/04 11:25:38;;;;;;;26.70;21.00;;;4.50;98.30;;;;;;4140828;28;20477;-78
2021/12/04 11:28:09;;;;;;;27.67;21.13;;;4.50;98.30;;;;;;4139303;28;20475;-79
2021/12/04 11:37:44;;;;;;;25.63;20.23;;;4.50;98.30;;;;;;4143848;28;20974;-78
2021/12/04 11:40:04;;;;;;;22.90;17.57;;;4.50;98.30;;;;;;4141380;28;20467;-78
2021/12/04 11:42:21;;;;;;;23.90;16.93;;;4.50;98.30;;;;;;4147773;28;20449;-77
2021/12/04 11:44:29;;;;;;;22.93;16.80;;;4.60;98.30;;;;;;4147470;28;20684;-78
2021/12/04 11:46:42;;;;;;;23.77;17.33;;;4.60;98.30;;;;;;4144551;28;20485;-78
2021/12/04 11:48:46;;;;;;;23.77;17.00;;;4.50;98.30;;;;;;4147927;28;20888;-79
2021/12/04 11:50:53;;;;;;;21.17;16.70;;;4.50;98.30;;;;;;4147630;28;20441;-78
2021/12/04 11:52:59;;;;;;;24.20;17.40;;;4.60;98.30;;;;;;4144781;28;20437;-78
2021/12/04 11:55:07;;;;;;;22.67;17.63;;;4.60;98.30;;;;;;4143038;28;20493;-78
2021/12/04 11:57:14;;;;;;;23.70;17.77;;;4.70;98.30;;;;;;4140213;28;20824;-78
2021/12/04 11:59:26;;;;;;;22.17;16.83;;;4.70;98.30;;;;;;4146482;28;20872;-78
2021/12/04 12:01:32;;;;;;;23.80;17.60;;;4.80;98.30;;;;;;4147739;28;20474;-78
2021/12/04 12:03:37;;;;;;;22.03;16.63;;;4.80;98.30;;;;;;4140044;28;20948;-78
2021/12/04 12:05:43;;;;;;;25.00;17.10;;;4.80;98.30;;;;;;4140113;28;20471;-78
2021/12/04 12:07:55;;;;;;;20.37;16.73;;;4.90;98.30;;;;;;4147254;28;20500;-78
2021/12/04 12:10:08;;;;;;;24.13;17.00;;;4.80;98.30;;;;;;4147436;28;20486;-78
2021/12/04 12:12:17;;;;;;;22.10;16.13;;;5.00;98.30;;;;;;4143884;28;20467;-78
2021/12/04 12:14:22;;;;;;;22.30;16.33;;;4.90;98.30;;;;;;4147415;28;20843;-78
2021/12/04 12:16:29;;;;;;;21.87;16.77;;;5.00;98.30;;;;;;4132628;28;20882;-78
2021/12/04 12:18:49;;;;;;;23.20;17.60;;;5.10;98.30;;;;;;4140024;28;20853;-78
2021/12/04 12:20:57;;;;;;;22.20;15.47;;;5.00;98.30;;;;;;4140091;28;20917;-78
2021/12/04 12:23:05;;;;;;;20.57;14.87;;;5.00;98.30;;;;;;4145706;28;20470;-78
2021/12/04 12:25:24;;;;;;;17.40;13.40;;;4.90;98.30;;;;;;4143990;28;20448;-78
2021/12/04 12:27:52;;;;;;;19.03;14.17;;;4.90;98.30;;;;;;4142503;28;20475;-78
2021/12/04 12:32:39;;;;;;;21.37;15.47;;;4.90;98.30;;;;;;4151206;28;20533;-78
2021/12/04 12:37:18;;;;;;;18.10;14.10;;;4.90;98.30;;;;;;4151831;28;20509;-79
2021/12/04 12:39:21;;;;;;;22.73;14.93;;;4.90;98.30;;;;;;4152444;28;20940;-79
2021/12/04 12:41:27;;;;;;;18.90;14.50;;;4.90;98.30;;;;;;4137747;28;20445;-79
2021/12/04 12:43:40;;;;;;;20.60;16.00;;;4.80;98.30;;;;;;4147020;28;20467;-77
2021/12/04 12:45:56;;;;;;;19.33;14.90;;;4.90;98.30;;;;;;4152538;28;20456;-79
2021/12/04 12:48:03;;;;;;;23.67;17.20;;;4.80;98.30;;;;;;4152252;28;20548;-79
2021/12/04 12:50:08;;;;;;;23.03;17.33;;;4.80;98.30;;;;;;4152343;28;20446;-79
2021/12/04 12:52:16;;;;;;;23.03;17.10;;;4.70;98.30;;;;;;4144535;28;20445;-79
2021/12/04 12:54:25;;;;;;;21.57;16.90;;;4.60;98.30;;;;;;4152065;28;20469;-78
2021/12/04 12:56:31;;;;;;;21.73;17.27;;;4.60;98.30;;;;;;4151833;28;20474;-79
2021/12/04 12:58:42;;;;;;;23.00;17.60;;;4.60;98.30;;;;;;4145282;28;20472;-78
2021/12/04 13:12:41;;;;;;;27.60;20.13;;;4.60;98.30;;;;;;4149974;28;20488;-78
2021/12/04 13:14:51;;;;;;;25.97;19.07;;;4.60;98.30;;;;;;4143935;28;20473;-78
2021/12/04 13:17:05;;;;;;;27.57;20.10;;;4.50;98.30;;;;;;4153384;28;20459;-78
2021/12/04 13:19:11;;;;;;;24.50;18.77;;;4.60;98.30;;;;;;4150099;28;20451;-78
2021/12/04 13:21:16;;;;;;;31.03;21.93;;;4.60;98.30;;;;;;4150064;28;20518;-78
2021/12/04 13:23:22;;;;;;;27.23;19.87;;;4.60;98.30;;;;;;4135526;28;20486;-78
2021/12/04 13:25:25;;;;;;;26.30;18.87;;;4.50;98.30;;;;;;4150147;28;20471;-78
2021/12/04 13:29:31;;;;;;;24.87;19.27;;;4.60;98.30;;;;;;4138375;28;20445;-78
2021/12/04 13:31:38;;;;;;;27.87;19.50;;;4.50;98.30;;;;;;4150572;28;20453;-78
2021/12/04 13:33:46;;;;;;;28.07;19.37;;;4.50;98.30;;;;;;4149543;28;20481;-78
2021/12/04 13:35:50;;;;;;;27.60;18.43;;;4.70;98.30;;;;;;4147310;28;20481;-78
2021/12/04 13:38:00;;;;;;;27.17;19.10;;;4.70;98.30;;;;;;4145048;28;20486;-78
2021/12/04 13:40:07;;;;;;;29.40;19.77;;;4.60;98.30;;;;;;4142371;28;20517;-78
2021/12/04 13:42:10;;;;;;;28.67;20.43;;;4.60;98.30;;;;;;4150031;28;20480;-78
2021/12/04 13:44:18;;;;;;;26.70;20.13;;;4.70;98.30;;;;;;4149754;28;21034;-78
2021/12/04 13:46:21;;;;;;;27.80;20.00;;;4.60;98.30;;;;;;4150091;28;20470;-77
2021/12/04 13:48:26;;;;;;;28.60;20.00;;;4.50;98.30;;;;;;4150045;28;20974;-78
2021/12/04 13:50:47;;;;;;;25.63;18.40;;;4.50;98.30;;;;;;4142313;28;20495;-77
2021/12/04 13:52:50;;;;;;;25.17;19.00;;;4.50;98.30;;;;;;4149133;28;20448;-77
2021/12/04 13:54:58;;;;;;;26.67;19.67;;;4.50;98.30;;;;;;4146608;28;20467;-77
2021/12/04 13:57:07;;;;;;;22.20;18.33;;;4.60;98.30;;;;;;4137813;28;20460;-77
2021/12/04 13:59:11;;;;;;;21.87;17.07;;;4.50;98.30;;;;;;4142082;28;20838;-78
2021/12/04 14:01:14;;;;;;;22.83;18.43;;;4.50;98.30;;;;;;4142170;28;20455;-78
2021/12/04 14:03:23;;;;;;;22.97;18.53;;;4.60;98.30;;;;;;4143150;28;20514;-78
2021/12/04 14:05:28;;;;;;;23.10;17.83;;;4.70;98.30;;;;;;4149949;28;20963;-78
2021/12/04 14:07:33;;;;;;;24.00;18.43;;;4.70;98.30;;;;;;4150138;28;20469;-78
2021/12/04 14:09:38;;;;;;;23.40;17.60;;;4.70;98.30;;;;;;4134315;28;20955;-78
2021/12/04 14:11:42;;;;;;;21.40;16.77;;;4.60;98.30;;;;;;4149658;28;20470;-78
2021/12/04 14:13:46;;;;;;;23.67;18.63;;;4.60;98.30;;;;;;4149083;28;20441;-78
2021/12/04 14:15:52;;;;;;;24.67;19.03;;;4.60;98.30;;;;;;4149664;28;21037;-78
2021/12/04 14:18:02;;;;;;;21.53;16.80;;;4.60;98.30;;;;;;4148788;28;20482;-78
2021/12/04 14:20:06;;;;;;;20.90;16.23;;;4.60;98.30;;;;;;4142593;28;20442;-78
2021/12/04 14:22:14;;;;;;;19.90;16.53;;;4.60;98.30;;;;;;4133905;28;20962;-78
2021/12/04 14:24:25;;;;;;;20.50;15.77;;;4.60;98.30;;;;;;4140872;28;20501;-78
2021/12/04 14:26:28;;;;;;;17.83;13.93;;;4.60;98.30;;;;;;4138797;28;20490;-78
2021/12/04 14:28:41;;;;;;;26.33;15.93;;;4.60;98.30;;;;;;4145486;28;21068;-78
2021/12/04 14:30:47;;;;;;;22.70;16.77;;;4.60;98.30;;;;;;4147007;28;20480;-77
2021/12/04 14:32:53;;;;;;;20.17;15.07;;;4.60;98.30;;;;;;4146548;28;20453;-77
2021/12/04 14:35:00;;;;;;;21.17;16.70;;;4.50;98.30;;;;;;4147079;28;20465;-77
2021/12/04 14:37:07;;;;;;;21.43;16.00;;;4.50;98.30;;;;;;4146760;28;20494;-77
2021/12/04 14:39:11;;;;;;;16.57;13.40;;;4.50;98.30;;;;;;4146889;28;20558;-77
2021/12/04 14:41:15;;;;;;;17.60;14.47;;;4.60;98.30;;;;;;4147139;28;20474;-78
2021/12/04 14:43:21;;;;;;;15.57;13.87;;;4.50;98.30;;;;;;4138679;28;20960;-78
2021/12/04 14:45:28;;;;;;;17.83;14.97;;;4.50;98.30;;;;;;4146333;28;20889;-77
2021/12/04 14:47:35;;;;;;;18.47;15.03;;;4.60;98.30;;;;;;4139833;28;20532;-78
2021/12/04 14:49:41;;;;;;;19.00;16.13;;;4.60;98.30;;;;;;4147237;28;20509;-78
2021/12/04 14:51:46;;;;;;;21.40;16.33;;;4.60;98.30;;;;;;4147010;28;20525;-78
2021/12/04 14:53:54;;;;;;;20.43;16.33;;;4.60;98.30;;;;;;4146716;28;20933;-77
2021/12/04 14:55:59;;;;;;;21.73;16.57;;;4.60;98.30;;;;;;4147448;28;20815;-78
2021/12/04 14:58:11;;;;;;;20.80;16.57;;;4.60;98.30;;;;;;4143066;28;20472;-77
2021/12/04 15:00:20;;;;;;;24.70;18.50;;;4.60;98.30;;;;;;4138574;28;20466;-77
2021/12/04 15:02:23;;;;;;;22.07;18.10;;;4.50;98.30;;;;;;4147002;28;20441;-78
2021/12/04 15:04:26;;;;;;;23.57;17.40;;;4.50;98.30;;;;;;4146873;28;20453;-78
2021/12/04 15:06:31;;;;;;;23.97;17.50;;;4.50;98.30;;;;;;4146862;28;20452;-77
2021/12/04 15:08:35;;;;;;;27.90;18.80;;;4.50;98.30;;;;;;4139381;28;20490;-77